Time;durP1;ratioP1;P1;durP2;ratioP2;P2;SDS_P1;SDS_P2;PMS_P1;PMS_P2;Temp;Humidity;BMP_temperature;BMP_pressure;BME280_temperature;BME280_humidity;BME280_pressure;Samples;Min_cycle;Max_cycle;Signal;HPM_P1;HPM_P2
2022/12/15 00:38:48;;;;;;;43.10;22.40;;;;;;;;;;4960149;28;20046;-83
2022/12/15 00:41:15;;;;;;;44.85;23.23;;;;;;;;;;4960879;29;20098;-83
2022/12/15 00:43:41;;;;;;;48.42;24.52;;;;;;;;;;4963143;28;20030;-84
2022/12/15 00:48:52;;;;;;;50.13;25.08;;;;;;;;;;4962695;29;20093;-83
2022/12/15 00:51:18;;;;;;;45.28;23.60;;;;;;;;;;4961730;28;20050;-84
2022/12/15 01:21:12;;;;;;;48.35;22.38;;;;;;;;;;4963139;28;20058;-84
2022/12/15 01:23:39;;;;;;;47.35;23.58;;;;;;;;;;4962481;28;20069;-84
2022/12/15 01:26:06;;;;;;;48.53;23.88;;;;;;;;;;4962736;28;20114;-84
2022/12/15 01:28:32;;;;;;;51.90;26.30;;;;;;;;;;4963767;29;20027;-83
2022/12/15 01:30:58;;;;;;;47.38;25.13;;;;;;;;;;4962526;28;20031;-84
2022/12/15 01:33:24;;;;;;;46.10;23.70;;;;;;;;;;4963540;29;20046;-84
2022/12/15 01:36:00;;;;;;;46.65;23.83;;;;;;;;;;4969104;28;20035;-84
2022/12/15 01:38:27;;;;;;;45.75;24.02;;;;;;;;;;4968370;28;20027;-84
2022/12/15 01:41:04;;;;;;;49.38;25.35;;;;;;;;;;4963713;28;20122;-84
2022/12/15 01:43:33;;;;;;;49.60;23.27;;;;;;;;;;4962978;28;20030;-84
2022/12/15 01:46:02;;;;;;;51.83;25.75;;;;;;;;;;4963010;29;20043;-84
2022/12/15 01:48:28;;;;;;;51.60;26.25;;;;;;;;;;4960584;28;20053;-84
2022/12/15 01:50:58;;;;;;;55.67;28.67;;;;;;;;;;4962975;28;20276;-84
2022/12/15 01:53:25;;;;;;;46.70;24.42;;;;;;;;;;4961252;28;20058;-83
2022/12/15 01:55:51;;;;;;;47.13;25.52;;;;;;;;;;4958955;28;20042;-84
2022/12/15 01:58:18;;;;;;;53.70;26.80;;;;;;;;;;4959677;28;20149;-84
2022/12/15 02:00:44;;;;;;;49.35;26.70;;;;;;;;;;4959640;28;20023;-84
2022/12/15 02:03:10;;;;;;;46.13;24.75;;;;;;;;;;4962624;28;20118;-83
2022/12/15 02:05:37;;;;;;;45.13;24.00;;;;;;;;;;4961116;28;20094;-83
2022/12/15 02:08:03;;;;;;;46.17;24.88;;;;;;;;;;4960782;29;20023;-84
2022/12/15 02:10:37;;;;;;;50.40;25.30;;;;;;;;;;4962074;29;20095;-83
2022/12/15 02:13:23;;;;;;;55.20;28.95;;;;;;;;;;4959912;28;20019;-84
2022/12/15 02:15:54;;;;;;;44.28;24.30;;;;;;;;;;4947288;28;20039;-82
2022/12/15 02:18:26;;;;;;;50.30;24.48;;;;;;;;;;4975464;29;20031;-82
2022/12/15 02:20:52;;;;;;;54.65;25.60;;;;;;;;;;4973296;28;20051;-84
2022/12/15 02:23:37;;;;;;;56.08;26.25;;;;;;;;;;4962520;28;20046;-84
2022/12/15 02:26:21;;;;;;;55.85;27.38;;;;;;;;;;4961684;28;20027;-83
2022/12/15 02:29:06;;;;;;;46.38;23.20;;;;;;;;;;4961856;28;20051;-84
2022/12/15 02:31:50;;;;;;;51.58;24.75;;;;;;;;;;4967781;28;20031;-84
2022/12/15 02:34:22;;;;;;;50.88;22.77;;;;;;;;;;4966004;28;20502;-84
2022/12/15 02:36:50;;;;;;;49.28;23.38;;;;;;;;;;4966140;28;20035;-84
2022/12/15 02:39:17;;;;;;;49.05;24.33;;;;;;;;;;4964217;28;20043;-84
2022/12/15 02:41:45;;;;;;;43.05;23.10;;;;;;;;;;4965757;29;20031;-84
2022/12/15 02:44:22;;;;;;;53.58;25.48;;;;;;;;;;4964482;28;20533;-83
2022/12/15 02:46:48;;;;;;;48.13;23.40;;;;;;;;;;4964002;28;20067;-83
2022/12/15 02:49:22;;;;;;;45.58;22.95;;;;;;;;;;4964991;29;20038;-83
2022/12/15 02:52:03;;;;;;;41.55;21.92;;;;;;;;;;4960843;29;20038;-84
2022/12/15 02:54:29;;;;;;;45.25;23.88;;;;;;;;;;4963713;28;20600;-84
2022/12/15 02:57:02;;;;;;;48.55;24.65;;;;;;;;;;4961611;28;20031;-83
2022/12/15 02:59:31;;;;;;;47.55;23.50;;;;;;;;;;4964162;28;20027;-84
2022/12/15 03:01:59;;;;;;;47.90;23.98;;;;;;;;;;4960758;28;20058;-84
2022/12/15 03:04:26;;;;;;;49.53;23.77;;;;;;;;;;4963074;29;20504;-84
2022/12/15 03:06:55;;;;;;;48.42;25.25;;;;;;;;;;4965411;28;20024;-84
2022/12/15 03:09:21;;;;;;;44.42;25.40;;;;;;;;;;4966037;28;20042;-84
2022/12/15 03:11:48;;;;;;;49.88;27.60;;;;;;;;;;4984216;28;20412;-84
2022/12/15 03:14:14;;;;;;;48.35;25.25;;;;;;;;;;4983819;28;20057;-84
2022/12/15 03:16:40;;;;;;;44.95;23.33;;;;;;;;;;4984891;28;20548;-84
2022/12/15 03:19:06;;;;;;;47.78;24.98;;;;;;;;;;4963451;28;20038;-84
2022/12/15 03:21:32;;;;;;;46.70;22.75;;;;;;;;;;4962574;28;20035;-84
2022/12/15 03:23:58;;;;;;;45.95;24.30;;;;;;;;;;4962319;28;20031;-84
2022/12/15 03:26:24;;;;;;;44.10;23.15;;;;;;;;;;4965103;28;20023;-84
2022/12/15 03:28:50;;;;;;;49.72;24.00;;;;;;;;;;4963929;28;20042;-83
2022/12/15 03:31:16;;;;;;;42.85;23.75;;;;;;;;;;4963941;28;20051;-84
2022/12/15 03:33:42;;;;;;;45.88;23.20;;;;;;;;;;4964911;28;20046;-83
2022/12/15 03:36:08;;;;;;;46.13;23.60;;;;;;;;;;4973255;28;20035;-84
2022/12/15 03:38:34;;;;;;;47.80;24.40;;;;;;;;;;4966626;28;20027;-84
2022/12/15 03:41:00;;;;;;;44.33;23.75;;;;;;;;;;4964831;28;20411;-84
2022/12/15 03:43:26;;;;;;;47.28;25.05;;;;;;;;;;4965354;28;20038;-83
2022/12/15 03:45:52;;;;;;;45.65;25.17;;;;;;;;;;4963081;28;20478;-84
2022/12/15 03:48:18;;;;;;;52.00;23.17;;;;;;;;;;4961336;28;20106;-84
2022/12/15 03:50:44;;;;;;;43.75;24.42;;;;;;;;;;4964490;28;20019;-84
2022/12/15 03:53:10;;;;;;;40.55;22.45;;;;;;;;;;4964021;28;20497;-84
2022/12/15 03:55:36;;;;;;;46.13;24.48;;;;;;;;;;4962591;28;20035;-84
2022/12/15 03:58:02;;;;;;;48.15;25.52;;;;;;;;;;4963101;29;20031;-84
2022/12/15 04:00:28;;;;;;;45.22;23.60;;;;;;;;;;4962470;28;20032;-84
2022/12/15 04:02:54;;;;;;;47.95;24.83;;;;;;;;;;4963585;29;20482;-84
2022/12/15 04:05:32;;;;;;;42.83;23.70;;;;;;;;;;4963433;28;20070;-84
2022/12/15 04:07:58;;;;;;;45.83;24.40;;;;;;;;;;4960207;28;20076;-84
2022/12/15 04:10:25;;;;;;;44.63;25.58;;;;;;;;;;4961023;28;20023;-84
2022/12/15 04:12:58;;;;;;;49.63;26.13;;;;;;;;;;4962001;29;20039;-84
2022/12/15 04:15:24;;;;;;;47.97;24.75;;;;;;;;;;4963533;28;20023;-84
2022/12/15 04:17:50;;;;;;;47.03;24.27;;;;;;;;;;4961736;28;20035;-84
2022/12/15 04:20:16;;;;;;;49.25;25.02;;;;;;;;;;4962193;29;20026;-84
2022/12/15 04:22:43;;;;;;;44.05;22.77;;;;;;;;;;4961021;28;20130;-83
2022/12/15 05:33:58;;;;;;;42.70;23.92;;;;;;;;;;4968838;28;20046;-82
2022/12/15 05:36:25;;;;;;;55.30;27.65;;;;;;;;;;4966814;28;20059;-82
2022/12/15 05:38:51;;;;;;;47.80;25.05;;;;;;;;;;4969757;28;20030;-82
2022/12/15 05:41:18;;;;;;;49.38;24.33;;;;;;;;;;4963730;28;20027;-82
2022/12/15 05:43:44;;;;;;;55.78;25.40;;;;;;;;;;4962962;29;20429;-82
2022/12/15 05:46:11;;;;;;;48.45;25.75;;;;;;;;;;4963068;28;20024;-83
2022/12/15 05:48:37;;;;;;;53.47;26.13;;;;;;;;;;4964151;28;20027;-82
2022/12/15 05:51:07;;;;;;;44.58;26.63;;;;;;;;;;4964148;29;20071;-83
2022/12/15 05:53:34;;;;;;;48.03;25.95;;;;;;;;;;4970078;28;20028;-84
2022/12/15 05:56:02;;;;;;;46.22;25.55;;;;;;;;;;4968192;28;20078;-83
2022/12/15 05:58:28;;;;;;;48.58;26.50;;;;;;;;;;4966320;28;20027;-84
2022/12/15 06:00:54;;;;;;;55.67;27.05;;;;;;;;;;4965246;28;20019;-84
2022/12/15 06:03:20;;;;;;;50.55;25.70;;;;;;;;;;4964239;28;20039;-84
2022/12/15 06:05:46;;;;;;;54.20;26.52;;;;;;;;;;4967167;28;20429;-83
2022/12/15 06:08:12;;;;;;;54.53;27.40;;;;;;;;;;4964855;28;20023;-84
2022/12/15 06:10:38;;;;;;;49.35;26.08;;;;;;;;;;4964576;28;20073;-83
2022/12/15 06:13:04;;;;;;;49.47;26.85;;;;;;;;;;4960830;28;20062;-84
2022/12/15 06:15:30;;;;;;;50.45;25.60;;;;;;;;;;4964053;28;20027;-83
2022/12/15 06:17:57;;;;;;;52.17;29.05;;;;;;;;;;4964250;29;20024;-83
2022/12/15 06:20:23;;;;;;;49.40;27.77;;;;;;;;;;4964534;28;20023;-83
2022/12/15 06:22:49;;;;;;;51.33;26.92;;;;;;;;;;4963355;28;20035;-83
2022/12/15 06:25:16;;;;;;;54.60;28.88;;;;;;;;;;4962508;28;20051;-83
2022/12/15 06:27:42;;;;;;;53.60;27.17;;;;;;;;;;4948677;29;20518;-83
2022/12/15 06:30:08;;;;;;;44.60;23.83;;;;;;;;;;4963862;28;20054;-83
2022/12/15 06:32:35;;;;;;;48.88;26.08;;;;;;;;;;4962529;29;20031;-83
2022/12/15 06:35:01;;;;;;;50.55;27.52;;;;;;;;;;4963932;28;20050;-83
2022/12/15 06:37:27;;;;;;;52.38;26.98;;;;;;;;;;4962622;28;20031;-83
2022/12/15 06:39:53;;;;;;;51.45;27.85;;;;;;;;;;4961989;28;20034;-83
2022/12/15 06:42:19;;;;;;;49.33;25.80;;;;;;;;;;4964322;28;20027;-83
2022/12/15 06:44:46;;;;;;;49.33;26.20;;;;;;;;;;4961195;28;20117;-83
2022/12/15 06:47:12;;;;;;;56.30;26.80;;;;;;;;;;4961761;29;20430;-83
2022/12/15 06:49:38;;;;;;;51.45;27.50;;;;;;;;;;4962032;28;20058;-83
2022/12/15 06:52:04;;;;;;;50.95;26.10;;;;;;;;;;4962463;28;20059;-83
2022/12/15 06:54:30;;;;;;;52.33;27.85;;;;;;;;;;4963591;28;20055;-83
2022/12/15 06:56:56;;;;;;;49.95;25.67;;;;;;;;;;4961950;28;20489;-83
2022/12/15 06:59:22;;;;;;;49.00;25.42;;;;;;;;;;4963555;28;20054;-83
2022/12/15 07:01:48;;;;;;;50.05;27.38;;;;;;;;;;4962164;28;20042;-83
2022/12/15 07:04:14;;;;;;;49.50;26.02;;;;;;;;;;4960785;28;20023;-83
2022/12/15 07:06:41;;;;;;;57.25;27.15;;;;;;;;;;4962168;28;20031;-83
2022/12/15 07:09:10;;;;;;;53.20;27.75;;;;;;;;;;4959370;28;20027;-83
2022/12/15 07:11:36;;;;;;;48.72;26.38;;;;;;;;;;4962585;29;20020;-83
2022/12/15 07:14:03;;;;;;;49.90;25.23;;;;;;;;;;4962180;28;20055;-83
2022/12/15 07:16:29;;;;;;;52.08;25.75;;;;;;;;;;4956202;28;20042;-83
2022/12/15 07:18:59;;;;;;;50.92;24.92;;;;;;;;;;4964002;29;20102;-83
2022/12/15 07:21:25;;;;;;;56.17;25.60;;;;;;;;;;4961289;28;20081;-83
2022/12/15 07:23:51;;;;;;;51.58;23.80;;;;;;;;;;4960560;28;20035;-83
2022/12/15 07:26:17;;;;;;;51.65;25.50;;;;;;;;;;4969277;28;20086;-83
2022/12/15 07:28:43;;;;;;;47.47;24.85;;;;;;;;;;4963519;28;20054;-84
2022/12/15 07:31:12;;;;;;;52.65;27.67;;;;;;;;;;4964940;29;20058;-84
2022/12/15 07:33:38;;;;;;;52.13;25.52;;;;;;;;;;4964488;28;20031;-84
2022/12/15 07:36:07;;;;;;;55.65;27.05;;;;;;;;;;4960998;28;20027;-83
2022/12/15 07:38:33;;;;;;;46.13;23.90;;;;;;;;;;4962901;29;20023;-83
2022/12/15 07:41:03;;;;;;;52.25;25.45;;;;;;;;;;4961698;29;20065;-84
2022/12/15 07:43:29;;;;;;;47.90;24.00;;;;;;;;;;4960322;29;20098;-84
2022/12/15 07:45:56;;;;;;;49.30;24.20;;;;;;;;;;4972501;28;20089;-83
2022/12/15 07:48:22;;;;;;;52.92;25.95;;;;;;;;;;4961910;29;20019;-84
2022/12/15 07:50:50;;;;;;;49.97;25.30;;;;;;;;;;4977556;28;20445;-83
2022/12/15 07:53:16;;;;;;;53.30;26.52;;;;;;;;;;4981568;28;20018;-84
2022/12/15 07:55:42;;;;;;;61.03;28.63;;;;;;;;;;4965692;28;20024;-84
2022/12/15 07:58:08;;;;;;;55.25;27.80;;;;;;;;;;4961316;28;20027;-84
2022/12/15 08:00:34;;;;;;;49.65;27.00;;;;;;;;;;4960284;28;20035;-84
2022/12/15 08:03:01;;;;;;;55.38;27.88;;;;;;;;;;4962146;28;20030;-84
2022/12/15 08:05:27;;;;;;;49.65;25.73;;;;;;;;;;4962746;28;20030;-84
2022/12/15 08:07:54;;;;;;;51.22;27.17;;;;;;;;;;4962249;28;20405;-84
2022/12/15 08:10:20;;;;;;;50.78;27.27;;;;;;;;;;4962435;29;20046;-84
2022/12/15 08:12:46;;;;;;;52.72;25.42;;;;;;;;;;4962018;29;20445;-84
2022/12/15 08:15:12;;;;;;;58.17;28.05;;;;;;;;;;4961061;28;20112;-84
2022/12/15 08:17:38;;;;;;;50.88;27.63;;;;;;;;;;4961748;28;20039;-84
2022/12/15 08:20:04;;;;;;;51.92;25.80;;;;;;;;;;4961670;28;20059;-84
2022/12/15 08:22:30;;;;;;;49.90;25.52;;;;;;;;;;4962609;28;20058;-84
2022/12/15 08:24:56;;;;;;;56.50;27.60;;;;;;;;;;4962613;28;20028;-84
2022/12/15 08:27:23;;;;;;;53.13;27.88;;;;;;;;;;4962203;28;20030;-84
2022/12/15 08:29:49;;;;;;;49.55;27.17;;;;;;;;;;4962202;28;20028;-84
2022/12/15 08:32:15;;;;;;;44.65;25.02;;;;;;;;;;4961520;28;20094;-84
2022/12/15 08:34:41;;;;;;;60.35;27.33;;;;;;;;;;4963860;28;20027;-84
2022/12/15 08:37:07;;;;;;;55.65;27.92;;;;;;;;;;4962936;29;20031;-84
2022/12/15 08:39:34;;;;;;;54.55;27.10;;;;;;;;;;4962792;28;20173;-84
2022/12/15 08:41:59;;;;;;;51.05;26.30;;;;;;;;;;4963773;28;20124;-84
2022/12/15 08:44:25;;;;;;;49.88;24.67;;;;;;;;;;4964004;28;20067;-84
2022/12/15 08:46:51;;;;;;;50.22;28.73;;;;;;;;;;4964212;28;20031;-84
2022/12/15 08:49:17;;;;;;;56.63;31.00;;;;;;;;;;4964257;29;20070;-84
2022/12/15 08:51:43;;;;;;;79.13;36.50;;;;;;;;;;4964056;28;20015;-84
2022/12/15 08:54:09;;;;;;;50.53;27.63;;;;;;;;;;4962063;28;20046;-84
2022/12/15 08:56:35;;;;;;;48.80;27.17;;;;;;;;;;4962634;28;20034;-84
2022/12/15 08:59:02;;;;;;;46.08;23.55;;;;;;;;;;4963844;28;20034;-85
2022/12/15 09:01:30;;;;;;;72.22;34.25;;;;;;;;;;4964876;29;20055;-85
2022/12/15 09:03:56;;;;;;;50.92;28.30;;;;;;;;;;4966263;29;20087;-84
2022/12/15 09:06:24;;;;;;;86.70;36.03;;;;;;;;;;4965163;28;20026;-84
2022/12/15 09:08:53;;;;;;;49.50;26.15;;;;;;;;;;4965444;29;20055;-85
2022/12/15 09:11:19;;;;;;;44.30;24.90;;;;;;;;;;4965491;28;20506;-85
2022/12/15 09:13:45;;;;;;;39.83;22.63;;;;;;;;;;4963179;28;20027;-84
2022/12/15 09:16:15;;;;;;;45.38;24.50;;;;;;;;;;4966660;28;20071;-85
2022/12/15 09:18:42;;;;;;;48.47;25.98;;;;;;;;;;4976030;29;20035;-84
2022/12/15 09:21:10;;;;;;;48.50;25.73;;;;;;;;;;4974201;28;20081;-85
2022/12/15 09:23:36;;;;;;;53.00;27.33;;;;;;;;;;4968695;28;20038;-85
2022/12/15 09:26:03;;;;;;;52.83;28.08;;;;;;;;;;4972384;28;20038;-85
2022/12/15 09:28:30;;;;;;;50.38;26.17;;;;;;;;;;4968827;28;20035;-85
2022/12/15 09:31:04;;;;;;;49.20;26.48;;;;;;;;;;4968548;28;20039;-86
2022/12/15 09:33:30;;;;;;;48.38;25.08;;;;;;;;;;4966931;29;20202;-85
2022/12/15 09:35:56;;;;;;;50.60;25.25;;;;;;;;;;4967196;28;20051;-85
2022/12/15 09:38:22;;;;;;;45.30;25.40;;;;;;;;;;4967453;28;20027;-85
2022/12/15 09:40:48;;;;;;;50.15;25.08;;;;;;;;;;4971110;28;20034;-85
2022/12/15 09:43:24;;;;;;;48.75;27.05;;;;;;;;;;4969534;28;20045;-85
2022/12/15 09:45:53;;;;;;;53.72;28.15;;;;;;;;;;4968756;28;20031;-86
2022/12/15 09:48:22;;;;;;;54.92;29.23;;;;;;;;;;4969932;28;20023;-86
2022/12/15 09:50:51;;;;;;;48.28;26.77;;;;;;;;;;4967998;28;20378;-86
2022/12/15 09:53:18;;;;;;;58.08;29.38;;;;;;;;;;4968841;28;20038;-85
2022/12/15 09:55:47;;;;;;;59.00;28.30;;;;;;;;;;4967721;28;20039;-86
2022/12/15 09:58:16;;;;;;;57.38;31.10;;;;;;;;;;4969668;28;20026;-86
2022/12/15 10:00:54;;;;;;;54.50;29.50;;;;;;;;;;4972213;28;20035;-86
2022/12/15 10:03:23;;;;;;;60.88;30.45;;;;;;;;;;4967214;29;20609;-85
2022/12/15 10:06:02;;;;;;;62.55;32.20;;;;;;;;;;4964594;28;20031;-86
2022/12/15 10:08:29;;;;;;;59.90;29.73;;;;;;;;;;4967212;28;20019;-86
2022/12/15 10:11:06;;;;;;;53.85;28.17;;;;;;;;;;4968772;28;20092;-85
2022/12/15 10:13:52;;;;;;;60.40;28.02;;;;;;;;;;4967931;28;20030;-86
2022/12/15 10:16:21;;;;;;;54.95;26.98;;;;;;;;;;4967991;28;20417;-85
2022/12/15 10:18:54;;;;;;;59.05;29.25;;;;;;;;;;4967758;28;20027;-85
2022/12/15 10:21:21;;;;;;;54.88;27.67;;;;;;;;;;4966516;28;20071;-86
2022/12/15 10:23:48;;;;;;;53.80;26.08;;;;;;;;;;4966617;28;20059;-85
2022/12/15 10:26:19;;;;;;;56.75;27.60;;;;;;;;;;4968407;28;20035;-85
2022/12/15 10:29:22;;;;;;;54.22;25.42;;;;;;;;;;4967780;29;20090;-85
2022/12/15 10:31:50;;;;;;;51.25;24.48;;;;;;;;;;4914179;29;20548;-84
2022/12/15 10:34:23;;;;;;;47.40;24.25;;;;;;;;;;4941159;29;20031;-85
2022/12/15 10:36:50;;;;;;;51.20;25.42;;;;;;;;;;4967402;28;20525;-85
2022/12/15 10:39:16;;;;;;;54.30;25.40;;;;;;;;;;4965887;29;20069;-84
2022/12/15 10:41:42;;;;;;;54.97;27.20;;;;;;;;;;4966961;29;20034;-85
2022/12/15 10:44:29;;;;;;;46.83;26.55;;;;;;;;;;4967065;28;20051;-85
2022/12/15 10:46:55;;;;;;;50.60;25.13;;;;;;;;;;4964301;28;20027;-85
2022/12/15 10:49:22;;;;;;;54.88;27.58;;;;;;;;;;4976566;28;20441;-85
2022/12/15 10:51:51;;;;;;;48.78;26.35;;;;;;;;;;4978304;28;20031;-85
2022/12/15 10:54:17;;;;;;;49.47;25.73;;;;;;;;;;4966347;28;20430;-85
2022/12/15 10:56:51;;;;;;;48.20;25.63;;;;;;;;;;4963845;28;20043;-85
2022/12/15 10:59:37;;;;;;;49.50;25.10;;;;;;;;;;4960784;29;20039;-86
2022/12/15 11:02:22;;;;;;;46.42;23.35;;;;;;;;;;4963591;29;20509;-85
2022/12/15 11:05:07;;;;;;;44.40;24.15;;;;;;;;;;4960125;28;20027;-85
2022/12/15 11:07:38;;;;;;;46.85;24.60;;;;;;;;;;4965799;28;20027;-85
2022/12/15 11:10:16;;;;;;;45.15;25.20;;;;;;;;;;4968802;28;20103;-85
2022/12/15 11:12:51;;;;;;;49.15;24.92;;;;;;;;;;4967261;28;20039;-85
2022/12/15 11:15:23;;;;;;;46.78;24.85;;;;;;;;;;4964450;28;20052;-86
2022/12/15 11:17:55;;;;;;;47.00;25.60;;;;;;;;;;4965461;29;20031;-85
2022/12/15 11:20:23;;;;;;;52.63;26.10;;;;;;;;;;4966581;29;20032;-86
2022/12/15 11:22:52;;;;;;;50.30;27.48;;;;;;;;;;4967443;28;20039;-84
2022/12/15 11:25:32;;;;;;;48.53;26.25;;;;;;;;;;4967323;28;20027;-85
2022/12/15 11:27:59;;;;;;;48.78;25.17;;;;;;;;;;4964620;29;20038;-84
2022/12/15 11:30:52;;;;;;;47.28;23.58;;;;;;;;;;4964472;28;20532;-84
2022/12/15 11:33:18;;;;;;;49.70;23.30;;;;;;;;;;4963274;29;20050;-85
2022/12/15 11:35:53;;;;;;;42.47;23.55;;;;;;;;;;4965865;28;20098;-83
2022/12/15 11:38:34;;;;;;;44.30;23.88;;;;;;;;;;4967254;29;20528;-84
2022/12/15 11:41:06;;;;;;;49.08;23.40;;;;;;;;;;4965675;28;20030;-84
2022/12/15 11:43:51;;;;;;;46.42;23.67;;;;;;;;;;4964719;28;20082;-84
2022/12/15 11:46:17;;;;;;;52.65;24.52;;;;;;;;;;4966745;28;20023;-84
2022/12/15 11:49:02;;;;;;;49.20;26.55;;;;;;;;;;4965563;28;20030;-83
2022/12/15 11:51:31;;;;;;;47.15;25.85;;;;;;;;;;4952530;29;20091;-84
2022/12/15 11:54:06;;;;;;;51.35;25.77;;;;;;;;;;4965174;28;20027;-83
2022/12/15 11:56:32;;;;;;;46.33;24.40;;;;;;;;;;4961709;28;20094;-84
2022/12/15 11:59:17;;;;;;;47.92;24.73;;;;;;;;;;4969134;28;20042;-83
2022/12/15 12:01:52;;;;;;;51.55;25.70;;;;;;;;;;4962719;28;20031;-84
2022/12/15 12:04:39;;;;;;;51.03;26.38;;;;;;;;;;4961232;28;20413;-84
2022/12/15 12:07:08;;;;;;;47.92;24.50;;;;;;;;;;4964742;29;20070;-84
2022/12/15 12:09:57;;;;;;;44.50;22.20;;;;;;;;;;4962407;29;20038;-84
2022/12/15 12:12:30;;;;;;;47.22;23.45;;;;;;;;;;4959516;29;20053;-85
2022/12/15 12:15:15;;;;;;;46.80;25.48;;;;;;;;;;4946904;29;20038;-85
2022/12/15 12:17:57;;;;;;;45.80;23.35;;;;;;;;;;4951914;29;20027;-85
2022/12/15 12:20:25;;;;;;;54.75;24.48;;;;;;;;;;4966756;29;20082;-84
2022/12/15 12:22:54;;;;;;;45.83;24.88;;;;;;;;;;4965498;29;20091;-84
2022/12/15 12:25:22;;;;;;;46.60;23.40;;;;;;;;;;4967991;28;20023;-85
2022/12/15 12:27:48;;;;;;;46.60;23.13;;;;;;;;;;4967978;28;20440;-83
2022/12/15 12:30:16;;;;;;;44.75;23.42;;;;;;;;;;4966357;28;20023;-83
2022/12/15 12:32:42;;;;;;;41.92;23.77;;;;;;;;;;4967053;29;20118;-85
2022/12/15 12:35:12;;;;;;;44.92;23.58;;;;;;;;;;4966361;28;20039;-83
2022/12/15 12:37:49;;;;;;;39.20;20.98;;;;;;;;;;4969755;29;20034;-83
2022/12/15 12:40:48;;;;;;;47.75;24.90;;;;;;;;;;4976832;28;20090;-81
2022/12/15 12:43:34;;;;;;;42.90;23.38;;;;;;;;;;4875239;29;20053;-85
2022/12/15 12:46:14;;;;;;;47.85;23.30;;;;;;;;;;4872900;29;20041;-84
2022/12/15 12:48:52;;;;;;;43.10;24.23;;;;;;;;;;4867290;29;20029;-82
2022/12/15 12:51:26;;;;;;;46.70;25.70;;;;;;;;;;4871583;29;20058;-84
2022/12/15 12:53:52;;;;;;;47.38;24.80;;;;;;;;;;4871537;29;20187;-85
2022/12/15 12:56:32;;;;;;;46.22;22.70;;;;;;;;;;4871871;29;20094;-84
2022/12/15 12:58:58;;;;;;;48.35;24.27;;;;;;;;;;4871812;29;20044;-85
2022/12/15 13:01:26;;;;;;;44.65;22.92;;;;;;;;;;4866257;29;20043;-84
2022/12/15 13:04:05;;;;;;;45.28;23.10;;;;;;;;;;4855127;29;20037;-83
2022/12/15 13:06:34;;;;;;;53.25;26.08;;;;;;;;;;4870731;29;20046;-84
2022/12/15 13:09:19;;;;;;;51.45;25.45;;;;;;;;;;4870115;29;20616;-84
2022/12/15 13:11:48;;;;;;;53.13;26.35;;;;;;;;;;4870598;29;20081;-84
2022/12/15 13:14:24;;;;;;;47.00;25.02;;;;;;;;;;4863952;29;20056;-84
2022/12/15 13:16:54;;;;;;;49.72;24.23;;;;;;;;;;4857223;29;20381;-84
2022/12/15 13:19:40;;;;;;;48.28;24.25;;;;;;;;;;4938698;28;20164;-85
2022/12/15 13:22:22;;;;;;;51.28;25.83;;;;;;;;;;4966826;29;20046;-85
2022/12/15 13:24:50;;;;;;;47.40;23.60;;;;;;;;;;4964485;28;20039;-83
2022/12/15 13:27:16;;;;;;;48.00;26.27;;;;;;;;;;4967831;28;20051;-84
2022/12/15 13:30:02;;;;;;;50.58;27.40;;;;;;;;;;4970129;28;20035;-81
2022/12/15 13:32:28;;;;;;;55.17;27.85;;;;;;;;;;4966386;29;20023;-83
2022/12/15 13:34:54;;;;;;;62.75;28.67;;;;;;;;;;4972727;28;20113;-83
2022/12/15 13:37:46;;;;;;;56.47;28.65;;;;;;;;;;4965505;29;20031;-83
2022/12/15 13:40:36;;;;;;;58.17;27.58;;;;;;;;;;4957544;28;20071;-82
2022/12/15 13:43:06;;;;;;;50.80;27.00;;;;;;;;;;4956360;28;20030;-82
2022/12/15 13:45:43;;;;;;;56.15;30.10;;;;;;;;;;4962268;28;20054;-83
2022/12/15 13:48:30;;;;;;;58.25;29.10;;;;;;;;;;4962135;28;20039;-83
2022/12/15 13:50:59;;;;;;;62.30;30.45;;;;;;;;;;4961672;29;20050;-82
2022/12/15 13:53:27;;;;;;;62.13;30.42;;;;;;;;;;4963552;28;20073;-83
2022/12/15 13:55:57;;;;;;;65.20;33.42;;;;;;;;;;4963360;28;20485;-83
2022/12/15 13:58:24;;;;;;;65.97;31.80;;;;;;;;;;4962535;29;20489;-83
2022/12/15 14:00:54;;;;;;;66.60;32.55;;;;;;;;;;4963551;28;20525;-84
2022/12/15 14:03:20;;;;;;;71.47;30.90;;;;;;;;;;4965149;28;20034;-83
2022/12/15 14:05:54;;;;;;;68.65;33.22;;;;;;;;;;4968625;28;20067;-84
2022/12/15 14:08:21;;;;;;;64.15;30.10;;;;;;;;;;4964422;28;20027;-84
2022/12/15 14:10:47;;;;;;;71.43;32.00;;;;;;;;;;4965263;29;20082;-83
2022/12/15 14:13:13;;;;;;;62.33;30.90;;;;;;;;;;4964006;29;20086;-84
2022/12/15 14:15:41;;;;;;;61.40;31.63;;;;;;;;;;4965503;28;20035;-84
2022/12/15 14:18:20;;;;;;;58.38;29.58;;;;;;;;;;4970329;28;20019;-83
2022/12/15 14:20:46;;;;;;;64.15;30.30;;;;;;;;;;4968777;28;20035;-84
2022/12/15 14:23:23;;;;;;;64.10;30.25;;;;;;;;;;4963993;28;20386;-83
2022/12/15 14:25:53;;;;;;;66.47;29.92;;;;;;;;;;4965653;28;20031;-84
2022/12/15 14:28:31;;;;;;;69.00;29.88;;;;;;;;;;4969608;29;20019;-83
2022/12/15 14:30:58;;;;;;;63.25;29.92;;;;;;;;;;4976817;28;20019;-84
2022/12/15 14:33:25;;;;;;;57.30;29.60;;;;;;;;;;4980647;28;20111;-84
2022/12/15 14:35:54;;;;;;;66.85;30.38;;;;;;;;;;4969193;28;20129;-83
2022/12/15 14:38:22;;;;;;;64.80;30.85;;;;;;;;;;4969071;29;20023;-83
2022/12/15 14:40:50;;;;;;;57.30;30.23;;;;;;;;;;4968644;29;20035;-83
2022/12/15 14:43:22;;;;;;;65.05;29.80;;;;;;;;;;4966502;28;20028;-83
2022/12/15 14:45:54;;;;;;;61.05;29.42;;;;;;;;;;4968168;28;20023;-83
2022/12/15 14:48:25;;;;;;;57.53;29.93;;;;;;;;;;4966344;28;20059;-83
2022/12/15 14:50:51;;;;;;;59.85;29.30;;;;;;;;;;4967432;28;20274;-81
2022/12/15 14:53:18;;;;;;;63.42;31.15;;;;;;;;;;4971309;29;20033;-81
2022/12/15 14:55:45;;;;;;;60.88;30.35;;;;;;;;;;4971736;28;20019;-83
2022/12/15 14:58:29;;;;;;;59.50;29.60;;;;;;;;;;4972582;28;20051;-83
2022/12/15 15:00:56;;;;;;;55.65;28.92;;;;;;;;;;4972592;28;20034;-83
2022/12/15 15:03:24;;;;;;;58.33;30.30;;;;;;;;;;4969738;28;20031;-82
2022/12/15 15:05:59;;;;;;;63.08;29.45;;;;;;;;;;4973542;28;20027;-82
2022/12/15 15:08:25;;;;;;;60.85;29.85;;;;;;;;;;4974797;28;20026;-82
2022/12/15 15:10:52;;;;;;;62.53;30.25;;;;;;;;;;4972272;28;20023;-82
2022/12/15 15:13:19;;;;;;;58.63;29.67;;;;;;;;;;4971004;28;20047;-82
2022/12/15 15:15:56;;;;;;;64.78;29.15;;;;;;;;;;4971690;28;20027;-81
2022/12/15 15:18:24;;;;;;;65.28;29.38;;;;;;;;;;4970584;28;20027;-82
2022/12/15 15:20:55;;;;;;;55.20;28.95;;;;;;;;;;4972348;29;20051;-82
2022/12/15 15:23:21;;;;;;;53.17;29.48;;;;;;;;;;4970149;28;20027;-83
2022/12/15 15:25:47;;;;;;;57.17;28.95;;;;;;;;;;4971099;28;20027;-83
2022/12/15 15:28:22;;;;;;;56.35;29.90;;;;;;;;;;4969200;28;20061;-83
2022/12/15 15:31:05;;;;;;;72.40;34.63;;;;;;;;;;4971928;29;20020;-83
2022/12/15 15:33:32;;;;;;;68.18;32.47;;;;;;;;;;4966005;28;20024;-83
2022/12/15 15:35:59;;;;;;;67.93;32.35;;;;;;;;;;4962966;28;20055;-83
2022/12/15 15:38:27;;;;;;;67.35;31.23;;;;;;;;;;4970302;28;20033;-83
2022/12/15 15:40:56;;;;;;;65.18;31.17;;;;;;;;;;4970743;28;20035;-83
2022/12/15 15:43:24;;;;;;;64.55;33.33;;;;;;;;;;4971286;29;20475;-83
2022/12/15 15:45:54;;;;;;;74.70;34.20;;;;;;;;;;4969974;28;20027;-83
2022/12/15 15:48:25;;;;;;;72.22;33.88;;;;;;;;;;4969093;28;20039;-84
2022/12/15 15:50:52;;;;;;;68.53;31.85;;;;;;;;;;4969877;28;20481;-83
2022/12/15 15:53:19;;;;;;;75.22;34.63;;;;;;;;;;4969922;28;20086;-83
2022/12/15 15:55:46;;;;;;;73.20;31.70;;;;;;;;;;4968016;28;20139;-82
2022/12/15 15:58:12;;;;;;;72.93;31.30;;;;;;;;;;4969076;28;20045;-83
2022/12/15 16:00:39;;;;;;;63.17;30.25;;;;;;;;;;4968184;28;20035;-83
2022/12/15 16:03:05;;;;;;;63.50;31.52;;;;;;;;;;4969161;29;20061;-83
2022/12/15 16:05:31;;;;;;;70.60;31.33;;;;;;;;;;4952046;29;20047;-83
2022/12/15 16:07:58;;;;;;;80.00;32.55;;;;;;;;;;4970203;29;20031;-82
2022/12/15 16:10:24;;;;;;;78.95;35.05;;;;;;;;;;4968878;29;20425;-83
2022/12/15 16:12:51;;;;;;;72.70;31.90;;;;;;;;;;4984117;28;20027;-83
2022/12/15 16:15:22;;;;;;;72.45;34.15;;;;;;;;;;4970154;28;20501;-84
2022/12/15 16:17:49;;;;;;;84.05;32.97;;;;;;;;;;4969145;28;20473;-83
2022/12/15 16:20:16;;;;;;;88.90;35.05;;;;;;;;;;4970518;29;20161;-83
2022/12/15 16:22:47;;;;;;;71.00;32.88;;;;;;;;;;4976176;28;20047;-83
2022/12/15 16:25:16;;;;;;;72.88;33.58;;;;;;;;;;4968389;28;20027;-83
2022/12/15 16:27:42;;;;;;;75.85;31.88;;;;;;;;;;4975793;28;20019;-82
2022/12/15 16:30:22;;;;;;;85.25;36.13;;;;;;;;;;4974274;28;20031;-83
2022/12/15 16:32:48;;;;;;;81.18;34.40;;;;;;;;;;4974790;29;20071;-83
2022/12/15 16:35:15;;;;;;;74.75;32.95;;;;;;;;;;4969542;28;20024;-83
2022/12/15 16:37:45;;;;;;;77.80;33.72;;;;;;;;;;4971297;29;20035;-83
2022/12/15 16:40:19;;;;;;;71.60;30.90;;;;;;;;;;4970085;29;20035;-83
2022/12/15 16:42:48;;;;;;;86.32;36.67;;;;;;;;;;4969915;28;20505;-84
2022/12/15 16:45:16;;;;;;;88.43;35.55;;;;;;;;;;4967461;28;20035;-83
2022/12/15 16:47:42;;;;;;;82.35;33.08;;;;;;;;;;4966167;28;20027;-83